Tiempo atmosférico en la estación meteorológica de Brozas , Cáceres (411 m.)



Fecha
DESCASC
Temp. máxima en grados centígrados (hora)
DESCASC
Temp. mínima en grados centígrados (hora)
DESCASC
Temp. media en grados centígrados
DESCASC
Racha de viento máxima en m/sg (hora)
DESCASC
Velocidad máxima media en intervalos de 10 minutos(hora)
DESCASC
Precipitaciones diarias en mm
DESCASC
Precipitaciones de 00:00 a 06:00 en mm
DESCASC
Precipitaciones de 06:00 a 12:00 en mm
DESCASC
Precipitaciones de 12:00 a 18:00 en mm
DESCASC
Precipitaciones de 18:00 a 24:00 en mm
DESCASC
23-06-2019 30.5 (15:40) 15.4 (06:50) 22.9 12.22 (17:20) 7.5 (21:30) 0 0 0 0 0
22-06-2019 32 (18:40) 15.5 (07:10) 23.8 11.67 (15:10) 7.22 (20:20) 0 0 0 0 0
21-06-2019 29.8 (17:30) 11.8 (06:50) 20.8 11.67 (19:10) 7.5 (21:50) 0 0 0 0 0
20-06-2019 26.8 (17:10) 14.7 (00:00) 20.7 10.83 (19:00) 8.06 (21:10) 0 0 0 0 0
19-06-2019 25.5 (18:30) 15.4 (00:00) 20.4 9.17 (15:20) 6.39 (15:20) 0 0 0 0 0
18-06-2019 25.4 (17:20) 12.6 (00:00) 19 13.06 (18:20) 9.72 (15:30) 0 0 0 0 0
17-06-2019 30.5 (16:30) 13.3 (00:00) 21.9 12.5 (16:40) 7.78 (16:40) 0 0 0 0 0
16-06-2019 31 (17:20) 12.2 (00:00) 21.6 12.22 (18:20) 7.5 (21:20) 0 0 0 0 0
15-06-2019 25.7 (18:30) 9.1 (00:00) 17.4 6.39 (15:00) 4.44 (00:20) 0 0 0 0 0
14-06-2019 21.7 (15:40) 7.6 (00:00) 14.7 13.61 (16:20) 9.72 (17:50) 0 0 0 0 0
13-06-2019 26.3 (17:50) 7 (00:00) 16.6 14.17 (15:50) 7.78 (22:00) 0 0 0 0 0
12-06-2019 26.9 (17:40) 9.2 (00:00) 18 11.11 (21:50) 8.61 (22:10) 0 0 0 0 0
11-06-2019 24.5 (16:40) 10.5 (00:00) 17.5 14.44 (15:10) 8.61 (13:40) 0 0 0 0 0
10-06-2019 26.7 (19:10) 9.5 (00:00) 18.1 11.94 (15:00) 8.89 (20:50) 0 0 0 0 0
09-06-2019 26.4 (17:20) 8.4 (00:00) 17.4 13.06 (18:10) 9.44 (20:40) 0 0 0 0 0
08-06-2019 27.2 (17:50) 9.6 (00:00) 18.4 10 (21:30) 8.33 (21:30) 0 0 0 0 0
07-06-2019 22.1 (18:20) 8 (00:00) 15.1 10.83 (14:00) 6.11 (01:50) 0 0 0 0 0
06-06-2019 22.9 (16:40) 7.7 (00:00) 15.3 15 (19:20) 11.11 (19:20) 0.4 0 0 0 0.4
05-06-2019 21.1 (17:00) 9.2 (00:00) 15.2 12.78 (16:20) 8.61 (20:00) 0 0 0 0 0
04-06-2019 24.8 (15:10) 12.5 (00:00) 18.6 14.72 (17:40) 11.67 (18:00) 0 0 0 0 0
03-06-2019 32.5 (15:50) 17.5 (00:00) 25 11.94 (19:40) 8.61 (19:20) 0 0 0 0 0
02-06-2019 35.4 (16:20) 19.8 (00:00) 27.6 12.22 (20:00) 9.44 (20:20) 0 0 0 0 0
01-06-2019 35.6 (16:20) 18.7 (00:00) 27.1 6.67 (13:10) 5.28 (08:30) 0 0 0 0 0
31-05-2019 34.3 (17:10) 19.1 (00:00) 26.7 8.33 (17:20) 5.28 (17:20) 0 0 0 0 0
30-05-2019 32.5 (18:00) 17.7 (00:00) 25.1 14.44 (09:30) 10.83 (09:30) 0 0 0 0 0
29-05-2019 30.5 (18:20) 14 (00:00) 22.3 11.67 (02:30) 8.61 (09:50) 0 0 0 0 0
28-05-2019 30.3 (17:20) 14.9 (00:00) 22.6 11.67 (12:40) 8.06 (12:40) 0 0 0 0 0

Gráficas

Temp. máximas Temp. mínimas Temp. medias Precipitaciones Rachas de viento máximas Velocidades máximas media en intervalos de 10 minutos

Datos horarios

Fecha y hora oficial Temperatura (ºC) Velocidad del viento (km/h) Dirección del viento Racha (km/h) Dirección de racha Precipitación (mm) Presión (hPa) Tendencia (hPa) Humedad (%)
2019-06-26 23:00:00 24.4 15 Oeste 22 Sudoeste 0 -- -- 52
2019-06-26 22:00:00 26.5 17 Sudoeste 29 Sudoeste 0 -- -- 38
2019-06-26 21:00:00 28.4 21 Sudoeste 31 Sur 0 -- -- 35
2019-06-26 20:00:00 29.2 17 Sur 39 Sudoeste 0 -- -- 34
2019-06-26 19:00:00 29.4 23 Sudoeste 43 Sudoeste 0 -- -- 34
2019-06-26 18:00:00 30 21 Sur 41 Sur 0 -- -- 33
2019-06-26 17:00:00 29.2 24 Sur 40 Sur 0 -- -- 35
2019-06-26 16:00:00 29 23 Sur 43 Sur 0 -- -- 36
2019-06-26 15:00:00 28.7 22 Sur 42 Sudoeste 0 -- -- 36
2019-06-26 14:00:00 26.6 23 Sudoeste 36 Sur 0 -- -- 45
2019-06-26 13:00:00 25.4 21 Sur 35 Sur 0 -- -- 50
2019-06-26 12:00:00 24.6 19 Sur 31 Sur 0 -- -- 54
2019-06-26 11:00:00 23.2 19 Sudoeste 28 Sur 0 -- -- 59
2019-06-26 10:00:00 22.1 19 Sur 27 Sur 0 -- -- 64
2019-06-26 09:00:00 20.1 20 Sur 24 Sur 0 -- -- 69
2019-06-26 08:00:00 18.1 13 Sur 18 Sur 0 -- -- 77
2019-06-26 07:00:00 17 9 Sur 14 Sur 0 -- -- 79
2019-06-26 06:00:00 17.3 9 Sur 11 Sur 0 -- -- 78
2019-06-26 05:00:00 18.1 7 Sur 10 Oeste 0 -- -- 75
2019-06-26 04:00:00 19.1 8 Oeste 15 Oeste 0 -- -- 72
2019-06-26 03:00:00 19.8 10 Oeste 19 Oeste 0 -- -- 69
2019-06-26 02:00:00 21 13 Oeste 23 Oeste 0 -- -- 64
2019-06-26 01:00:00 22.3 17 Oeste 22 Oeste 0 -- -- 59
2019-06-26 00:00:00 23.6 15 Oeste 21 Oeste 0 -- -- 49
2019-06-25 23:00:00 24.9 14 Noroeste 26 Oeste 0 -- -- 44
2019-06-25 22:00:00 27.7 13 Sudoeste 24 Sudoeste 0 -- -- 33
2019-06-25 21:00:00 29.7 17 Sudoeste 31 Sudoeste 0 -- -- 30
2019-06-25 20:00:00 30.7 18 Sur 31 Sudoeste 0 -- -- 30
2019-06-25 19:00:00 31 17 Sudoeste 37 Sudoeste 0 -- -- 29
2019-06-25 18:00:00 31 18 Sur 38 Sur 0 -- -- 30
2019-06-25 17:00:00 31.3 18 Sudoeste 37 Sur 0 -- -- 31
2019-06-25 16:00:00 30.7 20 Sudoeste 32 Sur 0 -- -- 30
2019-06-25 15:00:00 29.5 8 Sudoeste 24 Sudeste 0 -- -- 34
2019-06-25 14:00:00 28.4 5 Sudoeste 20 Sudeste 0 -- -- 36
2019-06-25 13:00:00 26.5 14 Sur 23 Sudeste 0 -- -- 40
2019-06-25 12:00:00 24.9 7 Oeste 18 Sudoeste 0 -- -- 44
2019-06-25 11:00:00 23.8 4 Noroeste 12 Noroeste 0 -- -- 46
2019-06-25 10:00:00 20.7 4 Noroeste 10 Noroeste 0 -- -- 55
2019-06-25 09:00:00 18.6 2 Norte 6 Noroeste 0 -- -- 64
2019-06-25 08:00:00 16.2 0 Calma 5 Noroeste 0 -- -- 71
2019-06-25 07:00:00 15.2 4 Oeste 6 Sudoeste 0 -- -- 72
2019-06-25 06:00:00 14.9 4 Sur 5 Sur 0 -- -- 73
2019-06-25 05:00:00 15 3 Sur 5 Sur 0 -- -- 75
2019-06-25 04:00:00 15.5 3 Noroeste 9 Noroeste 0 -- -- 75
2019-06-25 03:00:00 16.2 7 Noroeste 10 Noroeste 0 -- -- 74
2019-06-25 02:00:00 16 9 Noroeste 12 Noroeste 0 -- -- 72
2019-06-25 01:00:00 15.4 4 Noroeste 10 Noroeste 0 -- -- 67
2019-06-25 00:00:00 15.6 8 Noroeste 12 Noroeste 0 -- -- 62
2019-06-24 23:00:00 15.8 6 Norte 10 Noroeste 0 -- -- 60
2019-06-24 22:00:00 17 9 Noroeste 20 Noroeste 0 -- -- 56
2019-06-24 21:00:00 18.6 12 Noroeste 23 Norte 0 -- -- 52
2019-06-24 20:00:00 17.1 17 Norte 30 Norte 0 -- -- 62
2019-06-24 19:00:00 16.9 16 Noroeste 40 Noroeste 0 -- -- 58
2019-06-24 18:00:00 18 35 Noroeste 46 Noroeste 0 -- -- 56
2019-06-24 17:00:00 21.1 32 Noroeste 41 Noroeste 0 -- -- 50
2019-06-24 16:00:00 21.6 26 Noroeste 45 Noroeste 0 -- -- 57
2019-06-24 15:00:00 21.1 23 Noroeste 35 Noroeste 0 -- -- 49
2019-06-24 14:00:00 20.4 23 Noroeste 32 Noroeste 0 -- -- 60
2019-06-24 13:00:00 19.9 26 Noroeste 38 Oeste 0 -- -- 67
2019-06-24 12:00:00 23.7 15 Oeste 28 Noroeste 0 -- -- 66
2019-06-24 11:00:00 22.4 9 Sudoeste 17 Sudoeste 0 -- -- 71
2019-06-24 10:00:00 21.1 6 Oeste 16 Noroeste 0 -- -- 77
2019-06-24 09:00:00 19.9 8 Oeste 12 Oeste 0 -- -- 84
2019-06-24 08:00:00 19.2 8 Oeste 11 Oeste 0 -- -- 88
2019-06-24 07:00:00 19.2 3 Sudoeste 7 Oeste 0 -- -- 86
2019-06-24 06:00:00 19.5 5 Oeste 13 Oeste 0 -- -- 85
2019-06-24 05:00:00 19.7 9 Oeste 11 Oeste 0 -- -- 83
2019-06-24 04:00:00 19.9 8 Oeste 20 Oeste 0 -- -- 82
2019-06-24 03:00:00 20.3 12 Oeste 19 Oeste 0 -- -- 79
2019-06-24 02:00:00 20.7 16 Oeste 21 Oeste 0 -- -- 76
2019-06-24 01:00:00 21.5 14 Oeste 19 Oeste 0 -- -- 71
2019-06-24 00:00:00 22.3 17 Noroeste 23 Oeste 0 -- -- 67
2019-06-23 23:00:00 22.9 17 Oeste 27 Oeste 0 -- -- 64
2019-06-23 22:00:00 23.6 21 Noroeste 33 Noroeste 0 -- -- 62
2019-06-23 21:00:00 25.6 20 Oeste 33 Noroeste 0 -- -- 53
2019-06-23 20:00:00 27.2 18 Oeste 26 Oeste 0 -- -- 43
2019-06-23 19:00:00 27.6 12 Sudoeste 22 Sudoeste 0 -- -- 29
2019-06-23 18:00:00 27.8 15 Sudoeste 44 Sur 0 -- -- 29
2019-06-23 17:00:00 28.3 15 Sudoeste 41 Sudoeste 0 -- -- 28
2019-06-23 16:00:00 29.7 18 Sudoeste 43 Sudoeste 0 -- -- 22
2019-06-23 15:00:00 29.5 12 Sur 30 Sur 0 -- -- 22
2019-06-23 14:00:00 28.3 17 Sur 34 Sur 0 -- -- 23
2019-06-23 13:00:00 27.8 18 Sur 34 Sur 0 -- -- 24
2019-06-23 12:00:00 25.3 12 Sur 24 Sur 0 -- -- 30
2019-06-23 11:00:00 23.1 8 Sur 15 Sur 0 -- -- 40
2019-06-23 10:00:00 21 8 Sudoeste 15 Oeste 0 -- -- 47
2019-06-23 09:00:00 18.9 7 Sudoeste 11 Sudoeste 0 -- -- 52
2019-06-23 08:00:00 15.6 7 Sur 15 Sudoeste 0 -- -- 53
2019-06-23 07:00:00 15.4 10 Sudoeste 12 Sudoeste 0 -- -- 53
2019-06-23 06:00:00 16.4 6 Sur 10 Sudoeste 0 -- -- 49
2019-06-23 05:00:00 16.9 9 Oeste 17 Oeste 0 -- -- 50
2019-06-23 04:00:00 17.3 11 Oeste 20 Oeste 0 -- -- 46
2019-06-23 03:00:00 18.4 14 Oeste 18 Oeste 0 -- -- 45
2019-06-23 02:00:00 19.9 15 Oeste 21 Oeste 0 -- -- 42
2019-06-23 01:00:00 21.2 16 Oeste 27 Oeste 0 -- -- 37
2019-06-23 00:00:00 22.9 18 Oeste 22 Oeste 0 -- -- 26
2019-06-22 23:00:00 23.8 18 Oeste 24 Oeste 0 -- -- 24
2019-06-22 22:00:00 25.9 19 Oeste 31 Oeste 0 -- -- 18
2019-06-22 21:00:00 28.8 24 Oeste 36 Oeste 0 -- -- 15
2019-06-22 20:00:00 30.4 23 Oeste 32 Sudoeste 0 -- -- 17
2019-06-22 19:00:00 30.9 15 Sudoeste 33 Sudoeste 0 -- -- 19
2019-06-22 18:00:00 31.2 15 Sudoeste 33 Sudoeste 0 -- -- 19
2019-06-22 17:00:00 31.4 12 Sur 37 Sur 0 -- -- 19
2019-06-22 16:00:00 30.5 20 Sudoeste 42 Sudoeste 0 -- -- 21
2019-06-22 15:00:00 30.6 22 Sudoeste 40 Sudoeste 0 -- -- 22
2019-06-22 14:00:00 29.9 19 Sur 40 Sur 0 -- -- 25
2019-06-22 13:00:00 28.4 23 Sur 32 Sur 0 -- -- 27
2019-06-22 12:00:00 26.8 13 Sur 24 Sudoeste 0 -- -- 34
2019-06-22 11:00:00 25 10 Sur 21 Sudoeste 0 -- -- 40
2019-06-22 10:00:00 23.2 7 Sudeste 13 Sudeste 0 -- -- 43
2019-06-22 09:00:00 20.8 4 Sudeste 9 Nordeste 0 -- -- 54
2019-06-22 08:00:00 17 9 Nordeste 15 Nordeste 0 -- -- 69
2019-06-22 07:00:00 15.6 10 Norte 11 Noroeste 0 -- -- 71
2019-06-22 06:00:00 15.8 10 Noroeste 15 Noroeste 0 -- -- 71
2019-06-22 05:00:00 16.5 9 Noroeste 15 Oeste 0 -- -- 69
2019-06-22 04:00:00 16.5 9 Noroeste 13 Noroeste 0 -- -- 70
2019-06-22 03:00:00 17.2 10 Noroeste 15 Noroeste 0 -- -- 68
2019-06-22 02:00:00 18.2 13 Noroeste 19 Noroeste 0 -- -- 64
2019-06-22 01:00:00 19.7 12 Noroeste 19 Oeste 0 -- -- 60
2019-06-22 00:00:00 20.6 13 Noroeste 22 Oeste 0 -- -- 56
2019-06-21 23:00:00 22.7 16 Oeste 33 Oeste 0 -- -- 49
2019-06-21 22:00:00 25.3 24 Oeste 36 Noroeste 0 -- -- 41
2019-06-21 21:00:00 29.3 6 Oeste 18 Noroeste 0 -- -- 24
2019-06-21 20:00:00 29.3 11 Norte 42 Noroeste 0 -- -- 25
2019-06-21 19:00:00 29.5 8 Norte 21 Noroeste 0 -- -- 26
2019-06-21 18:00:00 29 11 Noroeste 29 Oeste 0 -- -- 27
2019-06-21 17:00:00 29.3 12 Sudoeste 22 Noroeste 0 -- -- 27
2019-06-21 16:00:00 28.8 11 Noroeste 21 Noroeste 0 -- -- 27
2019-06-21 15:00:00 27.6 12 Norte 27 Oeste 0 -- -- 29
2019-06-21 14:00:00 26.3 14 Noroeste 25 Oeste 0 -- -- 37
2019-06-21 13:00:00 24.4 13 Oeste 28 Oeste 0 -- -- 44
2019-06-21 12:00:00 22.9 12 Oeste 20 Oeste 0 -- -- 48
2019-06-21 11:00:00 21 10 Noroeste 18 Noroeste 0 -- -- 54
2019-06-21 10:00:00 18.2 13 Noroeste 23 Noroeste 0 -- -- 64
2019-06-21 09:00:00 15.7 16 Noroeste 23 Noroeste 0 -- -- 72
2019-06-21 08:00:00 13 14 Noroeste 19 Oeste 0 -- -- 83
2019-06-21 07:00:00 11.8 14 Noroeste 21 Noroeste 0 -- -- 86
2019-06-21 06:00:00 12.3 18 Noroeste 22 Oeste 0 -- -- 85
2019-06-21 05:00:00 12.8 14 Noroeste 20 Noroeste 0 -- -- 83
2019-06-21 04:00:00 12.9 15 Noroeste 19 Noroeste 0 -- -- 81
2019-06-21 03:00:00 13.7 17 Noroeste 21 Noroeste 0 -- -- 77
2019-06-21 02:00:00 14.3 15 Noroeste 27 Noroeste 0 -- -- 74
2019-06-21 01:00:00 15.6 21 Noroeste 27 Oeste 0 -- -- 69
2019-06-21 00:00:00 16.7 19 Oeste 29 Oeste 0 -- -- 64
2019-06-20 23:00:00 18.3 23 Oeste 35 Oeste 0 -- -- 61
2019-06-20 22:00:00 20.4 24 Oeste 38 Oeste 0 -- -- 53
2019-06-20 21:00:00 22.8 28 Oeste 36 Oeste 0 -- -- 47
2019-06-20 20:00:00 25 22 Oeste 34 Oeste 0 -- -- 40
2019-06-20 19:00:00 25.7 26 Oeste 39 Oeste 0 -- -- 39
2019-06-20 18:00:00 26.4 17 Oeste 32 Sudoeste 0 -- -- 36
2019-06-20 17:00:00 26.7 18 Oeste 34 Oeste 0 -- -- 34
2019-06-20 16:00:00 26 22 Oeste 33 Sudoeste 0 -- -- 36
2019-06-20 15:00:00 25.8 14 Sudoeste 28 Oeste 0 -- -- 40
2019-06-20 14:00:00 24.3 9 Noroeste 28 Oeste 0 -- -- 43
2019-06-20 13:00:00 22.6 14 Sudoeste 30 Sudoeste 0 -- -- 47
2019-06-20 12:00:00 22.2 13 Sudoeste 26 Sudoeste 0 -- -- 51
2019-06-20 11:00:00 19.8 9 Sudoeste 17 Oeste 0 -- -- 63
2019-06-20 10:00:00 18 5 Oeste 16 Oeste 0 -- -- 71
2019-06-20 09:00:00 16.8 12 Oeste 15 Oeste 0 -- -- 75
2019-06-20 08:00:00 15.8 5 Oeste 11 Noroeste 0 -- -- 80
2019-06-20 07:00:00 15.4 9 Noroeste 13 Noroeste 0 -- -- 82
2019-06-20 06:00:00 15 10 Oeste 15 Oeste 0 -- -- 83
2019-06-20 05:00:00 14.8 9 Oeste 12 Oeste 0 -- -- 83
2019-06-20 04:00:00 15.2 10 Noroeste 13 Noroeste 0 -- -- 82
2019-06-20 03:00:00 15.7 11 Noroeste 13 Noroeste 0 -- -- 79
2019-06-20 02:00:00 16.2 11 Noroeste 18 Noroeste 0 -- -- 76
2019-06-20 01:00:00 17.9 15 Noroeste 22 Oeste 0 -- -- 71
2019-06-20 00:00:00 19.2 18 Oeste 26 Oeste 0 -- -- 66
2019-06-19 23:00:00 20.2 14 Oeste 22 Oeste 0 -- -- 60
2019-06-19 22:00:00 22 15 Oeste 24 Oeste 0 -- -- 52
2019-06-19 21:00:00 23.6 17 Oeste 27 Oeste 0 -- -- 47
2019-06-19 20:00:00 24.4 15 Oeste 30 Oeste 0 -- -- 45
2019-06-19 19:00:00 24.6 16 Sudoeste 31 Sudoeste 0 -- -- 46
2019-06-19 18:00:00 24.2 18 Sudoeste 27 Sudoeste 0 -- -- 47
2019-06-19 17:00:00 24.4 15 Sudoeste 28 Sudoeste 0 -- -- 48
2019-06-19 16:00:00 24.6 14 Oeste -- -- -- -- -- 48
2019-06-19 15:00:00 -- -- -- -- -- -- -- -- --
2019-06-19 14:00:00 -- -- -- -- -- -- -- -- --
2019-06-19 13:00:00 -- -- -- -- -- -- -- -- --
2019-06-19 12:00:00 20 8 Sudoeste 15 Sur 0 -- -- 70
2019-06-19 11:00:00 17.4 12 Sudoeste 18 Sudoeste 0 -- -- 84
2019-06-19 10:00:00 17.4 12 Sur 20 Sur 0 -- -- 86
2019-06-19 09:00:00 16.9 13 Sur 17 Sur 0 -- -- 86
2019-06-19 08:00:00 15.8 8 Sur 13 Sur 0 -- -- 91
2019-06-19 07:00:00 15.5 4 Sur 6 Sudoeste 0 -- -- 91
2019-06-19 06:00:00 15.5 8 Sudoeste 21 Oeste 0 -- -- 91
2019-06-19 05:00:00 15.8 9 Sudoeste 12 Sudoeste 0 -- -- 81
2019-06-19 04:00:00 15.6 6 Sudoeste 18 Oeste 0 -- -- 82
2019-06-19 03:00:00 16.1 14 Oeste 20 Oeste 0 -- -- 79
2019-06-19 02:00:00 16.4 9 Oeste 18 Oeste 0 -- -- 73
2019-06-19 01:00:00 17.5 15 Oeste 20 Oeste 0 -- -- 69
2019-06-19 00:00:00 18.5 18 Oeste 28 Oeste 0 -- -- 63
2019-06-18 23:00:00 19.9 18 Oeste 36 Oeste 0 -- -- 50
2019-06-18 22:00:00 21.5 27 Oeste 38 Oeste 0 -- -- 50
2019-06-18 21:00:00 23.1 24 Sudoeste 35 Sudoeste 0 -- -- 52
2019-06-18 20:00:00 23.8 24 Sudoeste 40 Sudoeste 0 -- -- 49
2019-06-18 19:00:00 24.7 27 Sudoeste 47 Sudoeste 0 -- -- 48
2019-06-18 18:00:00 24.9 28 Sudoeste 44 Sudoeste 0 -- -- 48
2019-06-18 17:00:00 24.8 24 Sudoeste -- -- -- -- -- 48
2019-06-18 16:00:00 24.1 27 Sudoeste 46 Sudoeste 0 -- -- 50
2019-06-18 15:00:00 23.8 19 Sudoeste 42 Sur 0 -- -- 49
2019-06-18 14:00:00 23.1 27 Sudoeste 43 Sudoeste 0 -- -- 54
2019-06-18 13:00:00 22.4 31 Sudoeste 42 Sudoeste 0 -- -- 57
2019-06-18 12:00:00 22.2 25 Sudoeste 37 Sur 0 -- -- 53
2019-06-18 11:00:00 19.3 21 Sur 33 Sur 0 -- -- 56
2019-06-18 10:00:00 17.9 15 Sur 31 Sur 0 -- -- 57
2019-06-18 09:00:00 16.2 9 Sur 15 Sur 0 -- -- 53
2019-06-18 08:00:00 14.3 0 Calma 4 Noroeste 0 -- -- 63
2019-06-18 07:00:00 12.6 2 Norte 6 Noroeste 0 -- -- 68
2019-06-18 06:00:00 12.9 6 Noroeste 10 Noroeste 0 -- -- 62
2019-06-18 05:00:00 13.7 10 Noroeste 13 Noroeste 0 -- -- 55
2019-06-18 04:00:00 15.9 6 Noroeste 13 Oeste 0 -- -- 52
2019-06-18 03:00:00 17.6 12 Oeste 19 Oeste 0 -- -- 47
2019-06-18 02:00:00 18.8 15 Oeste 19 Oeste 0 -- -- 47
2019-06-18 01:00:00 19.1 11 Noroeste 29 Oeste 0 -- -- 49
2019-06-18 00:00:00 21.5 22 Oeste 30 Oeste 0 -- -- 43
2019-06-17 23:00:00 24.7 17 Sudoeste 22 Sudoeste 0 -- -- 23
2019-06-17 22:00:00 26.1 10 Sudoeste 17 Sudoeste 0 -- -- 20
2019-06-17 21:00:00 27.5 14 Sudoeste 31 Sudoeste 0 -- -- 17
2019-06-17 20:00:00 28.7 19 Sudoeste 33 Sudoeste 0 -- -- 14
2019-06-17 19:00:00 29.5 18 Sudoeste 32 Oeste 0 -- -- 14
2019-06-17 18:00:00 29.7 19 Sudoeste 36 Sudoeste 0 -- -- 16
2019-06-17 17:00:00 29.2 16 Sudoeste 45 Sur 0 -- -- 16
2019-06-17 16:00:00 30 22 Sudoeste 37 Sur 0 -- -- 15
2019-06-17 15:00:00 28.1 18 Sur 38 Sur 0 -- -- 22
2019-06-17 14:00:00 27.7 17 Sudeste 35 Sudeste 0 -- -- 25
2019-06-17 13:00:00 26.8 18 Sur 31 Sudoeste 0 -- -- 28
2019-06-17 12:00:00 24.9 13 Sur 26 Sur 0 -- -- 35
2019-06-17 11:00:00 23.4 16 Sur 25 Sur 0 -- -- 38
2019-06-17 10:00:00 21.5 13 Sur 21 Sur 0 -- -- 44
2019-06-17 09:00:00 19 8 Sudeste 11 Sudeste 0 -- -- 54
2019-06-17 08:00:00 15.2 9 Sur 12 Sur 0 -- -- 66
2019-06-17 07:00:00 13.6 8 Sudeste 10 Sudeste 0 -- -- 72
2019-06-17 06:00:00 13.8 5 Sur 9 Sudoeste 0 -- -- 71
2019-06-17 05:00:00 14.7 5 Sudoeste 9 Noroeste 0 -- -- 67
2019-06-17 04:00:00 15.2 9 Noroeste 14 Noroeste 0 -- -- 66
2019-06-17 03:00:00 16.4 11 Noroeste 14 Noroeste 0 -- -- 64
2019-06-17 02:00:00 17.2 11 Noroeste 19 Oeste 0 -- -- 61
2019-06-17 01:00:00 18.6 17 Oeste 24 Oeste 0 -- -- 57
2019-06-17 00:00:00 20.3 20 Oeste 25 Oeste 0 -- -- 49
2019-06-16 23:00:00 22.1 17 Oeste 30 Oeste 0 -- -- 36
2019-06-16 22:00:00 24.2 22 Oeste 34 Oeste 0 -- -- 33
2019-06-16 21:00:00 27.1 26 Noroeste 33 Noroeste 0 -- -- 27
2019-06-16 20:00:00 29.2 21 Sudoeste 37 Sur 0 -- -- 22
2019-06-16 19:00:00 30.2 18 Sudoeste 44 Sur 0 -- -- 18
2019-06-16 18:00:00 30.2 11 Sur 34 Sudoeste 0 -- -- 19
2019-06-16 17:00:00 30.8 15 Sur 33 Sur 0 -- -- 18
2019-06-16 16:00:00 29.9 15 Sudoeste 32 Sudoeste 0 -- -- 20
2019-06-16 15:00:00 29.5 13 Sudoeste 26 Sudoeste 0 -- -- 21
2019-06-16 14:00:00 27.7 8 Sudeste 23 Sur 0 -- -- 23
2019-06-16 13:00:00 25.9 7 Sudoeste 13 Sur 0 -- -- 27
2019-06-16 12:00:00 23.5 5 Sudoeste 9 Oeste 0 -- -- 32
2019-06-16 11:00:00 21.1 3 Sudeste 9 Nordeste 0 -- -- 39
2019-06-16 10:00:00 19.1 6 Nordeste 13 Este 0 -- -- 46
2019-06-16 09:00:00 16.3 5 Noroeste 13 Noroeste 0 -- -- 58
2019-06-16 08:00:00 13.2 10 Noroeste 11 Noroeste 0 -- -- 69
2019-06-16 07:00:00 12.2 8 Noroeste 10 Noroeste 0 -- -- 72
2019-06-16 06:00:00 12.6 8 Oeste 11 Noroeste 0 -- -- 70
2019-06-16 05:00:00 13 8 Noroeste 12 Noroeste 0 -- -- 69
2019-06-16 04:00:00 13.5 9 Noroeste 14 Noroeste 0 -- -- 67
2019-06-16 03:00:00 14.2 13 Noroeste 15 Noroeste 0 -- -- 64
2019-06-16 02:00:00 15.2 12 Oeste 16 Oeste 0 -- -- 61
2019-06-16 01:00:00 16.3 12 Oeste 22 Oeste 0 -- -- 58
2019-06-16 00:00:00 18.5 14 Oeste 18 Oeste 0 -- -- 47
2019-06-15 23:00:00 21.7 2 Oeste 5 Oeste 0 -- -- 27
2019-06-15 22:00:00 23.1 3 Oeste 9 Oeste 0 -- -- 25
2019-06-15 21:00:00 24.8 4 Sur 11 Sudoeste 0 -- -- 24
2019-06-15 20:00:00 25.2 8 Sudoeste 18 Noroeste 0 -- -- 24
2019-06-15 19:00:00 25.7 8 Oeste 19 Noroeste 0 -- -- 24
2019-06-15 18:00:00 25.2 6 Norte 20 Oeste 0 -- -- 23
2019-06-15 17:00:00 24.6 6 Sur 22 Oeste 0 -- -- 25
2019-06-15 16:00:00 24.1 11 Sudoeste 23 Oeste 0 -- -- 27
2019-06-15 15:00:00 23.2 13 Noroeste 23 Noroeste 0 -- -- 30
2019-06-15 14:00:00 21.6 7 Norte 19 Sur 0 -- -- 34
2019-06-15 13:00:00 20.1 6 Oeste 18 Sudoeste 0 -- -- 36
2019-06-15 12:00:00 18.6 5 Oeste 16 Noroeste 0 -- -- 43
2019-06-15 11:00:00 17.1 9 Norte 18 Norte 0 -- -- 48
2019-06-15 10:00:00 15.3 10 Norte 15 Nordeste 0 -- -- 57
2019-06-15 09:00:00 12.6 8 Noroeste 12 Noroeste 0 -- -- 69
2019-06-15 08:00:00 10 9 Noroeste 12 Noroeste 0 -- -- 81
2019-06-15 07:00:00 9.1 8 Oeste 12 Noroeste 0 -- -- 83
2019-06-15 06:00:00 9.4 10 Noroeste 13 Oeste 0 -- -- 82
2019-06-15 05:00:00 9.8 10 Noroeste 18 Oeste 0 -- -- 80
2019-06-15 04:00:00 9.8 12 Noroeste 18 Oeste 0 -- -- 78
2019-06-15 03:00:00 11.4 13 Oeste 19 Oeste 0 -- -- 72
2019-06-15 02:00:00 12.4 16 Oeste 20 Oeste 0 -- -- 67
2019-06-15 01:00:00 12.4 12 Noroeste 20 Oeste 0 -- -- 65
2019-06-15 00:00:00 13.7 15 Noroeste 24 Noroeste 0 -- -- 60
2019-06-14 23:00:00 14.8 17 Oeste 25 Oeste 0 -- -- 53
2019-06-14 22:00:00 16 18 Oeste 30 Noroeste 0 -- -- 51
2019-06-14 21:00:00 17.7 26 Oeste 39 Oeste 0 -- -- 45
2019-06-14 20:00:00 18.1 29 Oeste 40 Noroeste 0 -- -- 45
2019-06-14 19:00:00 19.1 30 Oeste 48 Oeste 0 -- -- 41
2019-06-14 18:00:00 20.2 30 Oeste 45 Oeste 0 -- -- 36
2019-06-14 17:00:00 20.4 34 Oeste 49 Oeste 0 -- -- 33
2019-06-14 16:00:00 20.9 30 Oeste 45 Oeste 0 -- -- 32
2019-06-14 15:00:00 20.6 25 Oeste 44 Oeste 0 -- -- 33
2019-06-14 14:00:00 20.1 15 Oeste 39 Oeste 0 -- -- 33
2019-06-14 13:00:00 18.5 21 Oeste 37 Sudoeste 0 -- -- 42
2019-06-14 12:00:00 17.4 15 Oeste 27 Oeste 0 -- -- 48
2019-06-14 11:00:00 15.3 14 Sudoeste 23 Sudoeste 0 -- -- 56
2019-06-14 10:00:00 13.1 11 Sudoeste 19 Sudoeste 0 -- -- 64
2019-06-14 09:00:00 11 9 Sudoeste 17 Sudoeste 0 -- -- 72
2019-06-14 08:00:00 8.7 11 Sudoeste 19 Sudoeste 0 -- -- 80
2019-06-14 07:00:00 7.6 12 Sudoeste 19 Sudoeste 0 -- -- 84
2019-06-14 06:00:00 8.6 15 Sudoeste 20 Oeste 0 -- -- 81
2019-06-14 05:00:00 8.7 10 Sudoeste 22 Sur 0 -- -- 81
2019-06-14 04:00:00 9 15 Sur 19 Sudoeste 0 -- -- 78
2019-06-14 03:00:00 10.8 12 Sudoeste 23 Oeste 0 -- -- 71
2019-06-14 02:00:00 12 18 Oeste 26 Oeste 0 -- -- 64
2019-06-14 01:00:00 13.5 18 Oeste 30 Oeste 0 -- -- 58
2019-06-14 00:00:00 15.2 22 Oeste 32 Oeste 0 -- -- 51
2019-06-13 23:00:00 17 23 Oeste 37 Oeste 0 -- -- 45
2019-06-13 22:00:00 19.7 28 Oeste 36 Oeste 0 -- -- 38
2019-06-13 21:00:00 23 24 Oeste 31 Oeste 0 -- -- 25
2019-06-13 20:00:00 25 24 Oeste 35 Oeste 0 -- -- 23
2019-06-13 19:00:00 26 16 Oeste 31 Oeste 0 -- -- 23
2019-06-13 18:00:00 26.1 17 Sudoeste 30 Oeste 0 -- -- 23
2019-06-13 17:00:00 26 12 Oeste 28 Oeste 0 -- -- 22
2019-06-13 16:00:00 24.7 9 Sudoeste 51 Oeste 0 -- -- 25
2019-06-13 15:00:00 23.2 11 Sudoeste 30 Sudoeste 0 -- -- 29
2019-06-13 14:00:00 21.8 10 Sudoeste 25 Sudoeste 0 -- -- 29
2019-06-13 13:00:00 20.2 9 Oeste 18 Oeste 0 -- -- 31
2019-06-13 12:00:00 18.2 7 Sur 20 Sur 0 -- -- 41
2019-06-13 11:00:00 16.6 6 Sur 15 Sudeste 0 -- -- 50
2019-06-13 10:00:00 14.6 5 Sur 10 Sur 0 -- -- 56
2019-06-13 09:00:00 11.5 6 Noroeste 9 Noroeste 0 -- -- 68
2019-06-13 08:00:00 8.4 6 Sudoeste 9 Sudoeste 0 -- -- 78
2019-06-13 07:00:00 7.1 6 Sur 9 Sudoeste 0 -- -- 81
2019-06-13 06:00:00 7.4 5 Sur 12 Sudoeste 0 -- -- 78
2019-06-13 05:00:00 8.5 8 Sudoeste 11 Oeste 0 -- -- 73
2019-06-13 04:00:00 9.1 12 Oeste 14 Oeste 0 -- -- 70
2019-06-13 03:00:00 10.4 11 Oeste 15 Oeste 0 -- -- 64
2019-06-13 02:00:00 11.8 13 Oeste 18 Oeste 0 -- -- 58
2019-06-13 01:00:00 13.5 13 Noroeste 25 Oeste 0 -- -- 52
2019-06-13 00:00:00 15.7 21 Noroeste 30 Oeste 0 -- -- 47
2019-06-12 23:00:00 17.6 23 Oeste 38 Oeste 0 -- -- 43
2019-06-12 22:00:00 20.5 30 Oeste 40 Oeste 0 -- -- 36
2019-06-12 21:00:00 23.9 23 Oeste 37 Oeste 0 -- -- 20
2019-06-12 20:00:00 25.7 21 Oeste 35 Sudoeste 0 -- -- 16
2019-06-12 19:00:00 26.4 19 Oeste 32 Sudoeste 0 -- -- 15
2019-06-12 18:00:00 26.5 15 Oeste 32 Oeste 0 -- -- 15
2019-06-12 17:00:00 26.5 13 Noroeste 30 Noroeste 0 -- -- 15
2019-06-12 16:00:00 25.5 16 Noroeste 29 Oeste 0 -- -- 16
2019-06-12 15:00:00 24.8 12 Oeste 26 Sudoeste 0 -- -- 16
2019-06-12 14:00:00 23.6 9 Sudoeste 25 Oeste 0 -- -- 20
2019-06-12 13:00:00 22.8 8 Sudoeste 20 Sudeste 0 -- -- 22
2019-06-12 12:00:00 21 4 Norte 14 Este 0 -- -- 26
2019-06-12 11:00:00 19.6 6 Nordeste 15 Este 0 -- -- 31
2019-06-12 10:00:00 17.2 10 Nordeste 26 Nordeste 0 -- -- 36
2019-06-12 09:00:00 14.7 21 Nordeste 27 Nordeste 0 -- -- 42
2019-06-12 08:00:00 11.9 15 Norte 21 Norte 0 -- -- 50
2019-06-12 07:00:00 10.5 17 Norte 22 Norte 0 -- -- 54
2019-06-12 06:00:00 10.9 18 Norte 22 Norte 0 -- -- 53
2019-06-12 05:00:00 12.8 18 Norte 25 Norte 0 -- -- 47
2019-06-12 04:00:00 12.3 14 Norte 18 Norte 0 -- -- 48
2019-06-12 03:00:00 14.4 16 Nordeste 26 Norte 0 -- -- 43
2019-06-12 02:00:00 15.8 21 Norte 28 Norte 0 -- -- 39
2019-06-12 01:00:00 14.7 16 Norte 22 Noroeste 0 -- -- 30
2019-06-12 00:00:00 16.6 13 Nordeste 17 Nordeste 0 -- -- 26
2019-06-11 23:00:00 17.8 12 Nordeste 18 Nordeste 0 -- -- 24
2019-06-11 22:00:00 19.9 13 Nordeste 24 Nordeste 0 -- -- 21
2019-06-11 21:00:00 22.3 16 Nordeste 29 Nordeste 0 -- -- 20
2019-06-11 20:00:00 23.4 18 Nordeste 35 Norte 0 -- -- 20
2019-06-11 19:00:00 24.3 23 Norte 37 Norte 0 -- -- 19
2019-06-11 18:00:00 24.2 21 Nordeste 41 Nordeste 0 -- -- 20
2019-06-11 17:00:00 24.1 23 Nordeste 45 Nordeste 0 -- -- 24
2019-06-11 16:00:00 23.9 28 Norte 52 Norte 0 -- -- 24
2019-06-11 15:00:00 22.9 30 Norte 49 Noroeste 0 -- -- 27
2019-06-11 14:00:00 22 30 Norte 51 Norte 0 -- -- 28
2019-06-11 13:00:00 20.2 27 Norte 44 Norte 0 -- -- 35
2019-06-11 12:00:00 19.7 28 Norte 42 Norte 0 -- -- 40
2019-06-11 11:00:00 18.2 30 Norte 42 Norte 0 -- -- 46
2019-06-11 10:00:00 16.7 29 Norte 40 Norte 0 -- -- 53
2019-06-11 09:00:00 15 22 Norte 28 Norte 0 -- -- 59
2019-06-11 08:00:00 12 13 Noroeste 17 Noroeste 0 -- -- 64
2019-06-11 07:00:00 10.5 17 Noroeste 22 Noroeste 0 -- -- 65
2019-06-11 06:00:00 10.6 18 Noroeste 20 Noroeste 0 -- -- 63
2019-06-11 05:00:00 11.3 16 Noroeste 21 Noroeste 0 -- -- 59
2019-06-11 04:00:00 12 14 Noroeste 21 Noroeste 0 -- -- 57
2019-06-11 03:00:00 13.1 20 Noroeste 27 Noroeste 0 -- -- 54
2019-06-11 02:00:00 13.9 23 Noroeste 34 Noroeste 0 -- -- 51
2019-06-11 01:00:00 14.9 18 Oeste 30 Noroeste 0 -- -- 50
2019-06-11 00:00:00 16.4 28 Noroeste 36 Noroeste 0 -- -- 48
2019-06-10 23:00:00 17.9 27 Oeste 36 Oeste 0 -- -- 45
2019-06-10 22:00:00 20.4 28 Noroeste 37 Noroeste 0 -- -- 38
2019-06-10 21:00:00 23.3 30 Noroeste 40 Oeste 0 -- -- 29
2019-06-10 20:00:00 25.5 22 Noroeste 33 Norte 0 -- -- 24
2019-06-10 19:00:00 26.6 17 Noroeste 32 Noroeste 0 -- -- 22
2019-06-10 18:00:00 26.6 18 Oeste 38 Oeste 0 -- -- 22
2019-06-10 17:00:00 26.1 21 Noroeste 36 Oeste 0 -- -- 18
2019-06-10 16:00:00 26 20 Noroeste 37 Noroeste 0 -- -- 20
2019-06-10 15:00:00 24.9 19 Noroeste 43 Noroeste 0 -- -- 23
2019-06-10 14:00:00 23.9 21 Noroeste 33 Noroeste 0 -- -- 25
2019-06-10 13:00:00 22.3 17 Noroeste 28 Noroeste 0 -- -- 33
2019-06-10 12:00:00 20.5 9 Noroeste 19 Noroeste 0 -- -- 41
2019-06-10 11:00:00 18.7 11 Noroeste 22 Noroeste 0 -- -- 47
2019-06-10 10:00:00 16.9 11 Noroeste 18 Noroeste 0 -- -- 53
2019-06-10 09:00:00 14.1 12 Noroeste 19 Noroeste 0 -- -- 65
2019-06-10 08:00:00 11 11 Noroeste 15 Noroeste 0 -- -- 79
2019-06-10 07:00:00 9.5 13 Noroeste 17 Noroeste 0 -- -- 82
2019-06-10 06:00:00 10.3 12 Noroeste 16 Noroeste 0 -- -- 79
2019-06-10 05:00:00 10.6 10 Noroeste 15 Noroeste 0 -- -- 78
2019-06-10 04:00:00 11.5 13 Noroeste 18 Noroeste 0 -- -- 75
2019-06-10 03:00:00 12.1 14 Noroeste 20 Noroeste 0 -- -- 72
2019-06-10 02:00:00 13.6 18 Noroeste 23 Noroeste 0 -- -- 67
2019-06-10 01:00:00 14.7 18 Noroeste 29 Oeste 0 -- -- 61
2019-06-10 00:00:00 15.9 21 Noroeste 27 Noroeste 0 -- -- 55
2019-06-09 23:00:00 17.3 23 Noroeste 35 Noroeste 0 -- -- 51
2019-06-09 22:00:00 19 28 Noroeste 39 Noroeste 0 -- -- 43
2019-06-09 21:00:00 21.5 31 Noroeste 45 Oeste 0 -- -- 36
2019-06-09 20:00:00 23.1 33 Noroeste 44 Noroeste 0 -- -- 33
2019-06-09 19:00:00 24.9 26 Noroeste 47 Oeste 0 -- -- 26
2019-06-09 18:00:00 25.8 23 Oeste 42 Oeste 0 -- -- 25
2019-06-09 17:00:00 25.7 18 Oeste 39 Oeste 0 -- -- 26
2019-06-09 16:00:00 24.9 17 Noroeste 37 Oeste 0 -- -- 26
2019-06-09 15:00:00 24.4 18 Oeste 42 Noroeste 0 -- -- 26
2019-06-09 14:00:00 23.2 17 Noroeste 35 Oeste 0 -- -- 26
2019-06-09 13:00:00 21.9 13 Noroeste 26 Noroeste 0 -- -- 33
2019-06-09 12:00:00 19.8 12 Noroeste 18 Noroeste 0 -- -- 43
2019-06-09 11:00:00 17.7 6 Noroeste 13 Noroeste 0 -- -- 49
2019-06-09 10:00:00 14.8 6 Oeste 18 Oeste 0 -- -- 55
2019-06-09 09:00:00 12.3 11 Oeste 17 Oeste 0 -- -- 60
2019-06-09 08:00:00 10.1 8 Noroeste 14 Noroeste 0 -- -- 65
2019-06-09 07:00:00 8.5 11 Oeste 14 Sudoeste 0 -- -- 71
2019-06-09 06:00:00 8.6 11 Sudoeste 13 Sudoeste 0 -- -- 71
2019-06-09 05:00:00 9.5 10 Sudoeste 12 Sudoeste 0 -- -- 69
2019-06-09 04:00:00 10.6 11 Sudoeste 16 Oeste 0 -- -- 65
2019-06-09 03:00:00 11.5 10 Oeste 12 Oeste 0 -- -- 63
2019-06-09 02:00:00 12.8 8 Oeste 21 Oeste 0 -- -- 61
2019-06-09 01:00:00 14.5 18 Oeste 27 Oeste 0 -- -- 58
2019-06-09 00:00:00 16.4 18 Oeste 31 Oeste 0 -- -- 53
2019-06-08 23:00:00 18.7 19 Noroeste 34 Oeste 0 -- -- 48
2019-06-08 22:00:00 20.6 25 Oeste 36 Noroeste 0 -- -- 42
2019-06-08 21:00:00 23.6 24 Noroeste 31 Oeste 0 -- -- 28
2019-06-08 20:00:00 24.8 23 Oeste 30 Oeste 0 -- -- 21
2019-06-08 19:00:00 27 9 Oeste 31 Sudoeste 0 -- -- 18
2019-06-08 18:00:00 26.9 15 Sudoeste 27 Sudoeste 0 -- -- 16
2019-06-08 17:00:00 26.2 6 Sudoeste 28 Oeste 0 -- -- 18
2019-06-08 16:00:00 26.1 10 Oeste 27 Noroeste 0 -- -- 18
2019-06-08 15:00:00 24.7 14 Sudoeste 26 Sudoeste 0 -- -- 21
2019-06-08 14:00:00 24.4 8 Noroeste 21 Sur 0 -- -- 23
2019-06-08 13:00:00 22.9 8 Sudoeste 22 Oeste 0 -- -- 27
2019-06-08 12:00:00 21.4 8 Norte 24 Este 0 -- -- 30
2019-06-08 11:00:00 19.2 7 Nordeste 17 Nordeste 0 -- -- 37
2019-06-08 10:00:00 16.9 11 Norte 24 Nordeste 0 -- -- 44
2019-06-08 09:00:00 14.3 18 Norte 25 Norte 0 -- -- 52
2019-06-08 08:00:00 11.4 15 Norte 19 Norte 0 -- -- 62
2019-06-08 07:00:00 9.9 12 Norte 19 Norte 0 -- -- 66
2019-06-08 06:00:00 10.4 16 Norte 20 Norte 0 -- -- 65
2019-06-08 05:00:00 10.4 14 Norte 20 Norte 0 -- -- 63
2019-06-08 04:00:00 11.5 14 Norte 21 Norte 0 -- -- 59
2019-06-08 03:00:00 12 15 Norte 21 Norte 0 -- -- 56
2019-06-08 02:00:00 12.4 15 Norte 19 Norte 0 -- -- 54
2019-06-08 01:00:00 13.4 17 Noroeste 19 Noroeste 0 -- -- 49
2019-06-08 00:00:00 14.3 15 Noroeste 19 Noroeste 0 -- -- 44
2019-06-07 23:00:00 16 12 Noroeste 17 Noroeste 0 -- -- 40
2019-06-07 22:00:00 17.7 12 Noroeste 20 Noroeste 0 -- -- 36
2019-06-07 21:00:00 20.6 10 Noroeste 24 Noroeste 0 -- -- 30
2019-06-07 20:00:00 21.5 11 Noroeste 28 Noroeste 0 -- -- 28
2019-06-07 19:00:00 22 12 Noroeste 25 Noroeste 0 -- -- 27
2019-06-07 18:00:00 21.6 15 Noroeste 32 Noroeste 0 -- -- 29
2019-06-07 17:00:00 21.4 16 Oeste 32 Oeste 0 -- -- 30
2019-06-07 16:00:00 20.6 15 Noroeste 30 Oeste 0 -- -- 32
2019-06-07 15:00:00 19.6 13 Noroeste 33 Noroeste 0 -- -- 35
2019-06-07 14:00:00 18.7 11 Norte 39 Oeste 0 -- -- 38
2019-06-07 13:00:00 17.5 13 Noroeste 26 Noroeste 0 -- -- 42
2019-06-07 12:00:00 15.9 10 Noroeste 21 Norte 0 -- -- 50
2019-06-07 11:00:00 14.2 8 Norte 19 Noroeste 0 -- -- 59
2019-06-07 10:00:00 12.2 10 Noroeste 20 Noroeste 0 -- -- 78
2019-06-07 09:00:00 10.8 16 Noroeste 21 Oeste 0 -- -- 89
2019-06-07 08:00:00 9.2 10 Oeste 19 Oeste 0 -- -- 94
2019-06-07 07:00:00 8.2 15 Oeste 20 Oeste 0 -- -- 96
2019-06-07 06:00:00 8.4 13 Oeste 22 Oeste 0 -- -- 94
2019-06-07 05:00:00 8.6 16 Oeste 21 Oeste 0 -- -- 94
2019-06-07 04:00:00 9.3 13 Oeste 24 Oeste 0 -- -- 92
2019-06-07 03:00:00 9.7 18 Oeste 32 Oeste 0 -- -- 91
2019-06-07 02:00:00 10.2 21 Oeste 28 Oeste 0 -- -- 90
2019-06-07 01:00:00 11.4 18 Oeste 28 Oeste 0 -- -- 91
2019-06-07 00:00:00 11.9 20 Oeste 36 Oeste 0 -- -- 94
2019-06-06 23:00:00 12.6 27 Oeste 48 Sudoeste 0.4 -- -- 92
2019-06-06 22:00:00 15.2 35 Sudoeste 54 Sudoeste 0 -- -- 81
2019-06-06 21:00:00 17.6 39 Sudoeste 52 Sudoeste 0 -- -- 61
2019-06-06 20:00:00 19.4 37 Sudoeste 54 Sudoeste 0 -- -- 49
2019-06-06 19:00:00 21.4 33 Sudoeste 51 Sudoeste 0 -- -- 40
2019-06-06 18:00:00 21.9 33 Sudoeste 52 Sudoeste 0 -- -- 38
2019-06-06 17:00:00 22.7 34 Sudoeste 50 Sudoeste 0 -- -- 35
2019-06-06 16:00:00 22.1 26 Sudoeste 44 Sudoeste 0 -- -- 35
2019-06-06 15:00:00 21.4 28 Sudoeste 42 Sudoeste 0 -- -- 35
2019-06-06 14:00:00 19.5 13 Sudoeste 33 Sudoeste 0 -- -- 41
2019-06-06 13:00:00 17.9 18 Sudoeste 29 Sudoeste 0 -- -- 47
2019-06-06 12:00:00 16.9 15 Sudoeste 26 Oeste 0 -- -- 47
2019-06-06 11:00:00 15.2 11 Oeste 19 Oeste 0 -- -- 50
2019-06-06 10:00:00 13.1 10 Oeste 18 Oeste 0 -- -- 59
2019-06-06 09:00:00 11.1 10 Oeste 14 Oeste 0 -- -- 70
2019-06-06 08:00:00 8.5 5 Sudoeste 15 Oeste 0 -- -- 79
2019-06-06 07:00:00 7.7 2 Sur 18 Oeste 0 -- -- 82
2019-06-06 06:00:00 7.9 11 Noroeste 18 Noroeste 0 -- -- 80
2019-06-06 05:00:00 8.8 12 Noroeste 24 Oeste 0 -- -- 76
2019-06-06 04:00:00 9.5 19 Oeste 26 Oeste 0 -- -- 72
2019-06-06 03:00:00 10 17 Oeste 25 Oeste 0 -- -- 68
2019-06-06 02:00:00 10.6 17 Noroeste 24 Oeste 0 -- -- 63
2019-06-06 01:00:00 11.6 18 Noroeste 25 Noroeste 0 -- -- 59
2019-06-06 00:00:00 12.5 18 Noroeste 27 Noroeste 0 -- -- 55
2019-06-05 23:00:00 13.9 21 Noroeste 26 Noroeste 0 -- -- 46
2019-06-05 22:00:00 15.3 20 Noroeste 33 Noroeste 0 -- -- 41
2019-06-05 21:00:00 17.6 26 Noroeste 39 Noroeste 0 -- -- 36
2019-06-05 20:00:00 19.7 31 Oeste 41 Oeste 0 -- -- 32
2019-06-05 19:00:00 20.2 20 Noroeste 39 Noroeste 0 -- -- 31
2019-06-05 18:00:00 20.9 19 Noroeste 38 Noroeste 0 -- -- 31
2019-06-05 17:00:00 21.1 19 Noroeste 46 Oeste 0 -- -- 27
2019-06-05 16:00:00 20.7 26 Noroeste 43 Noroeste 0 -- -- 31
2019-06-05 15:00:00 19.1 22 Noroeste 36 Noroeste 0 -- -- 34
2019-06-05 14:00:00 18.9 24 Noroeste 39 Noroeste 0 -- -- 36
2019-06-05 13:00:00 18.3 18 Noroeste 33 Noroeste 0 -- -- 39
2019-06-05 12:00:00 17.4 19 Noroeste 36 Noroeste 0 -- -- 44
2019-06-05 11:00:00 15 21 Noroeste 32 Noroeste 0 -- -- 50
2019-06-05 10:00:00 14.1 19 Noroeste 30 Noroeste 0 -- -- 58
2019-06-05 09:00:00 12.4 19 Noroeste 27 Oeste 0 -- -- 67
2019-06-05 08:00:00 10.1 18 Noroeste 27 Oeste 0 -- -- 81
2019-06-05 07:00:00 9.2 20 Noroeste 26 Oeste 0 -- -- 83
2019-06-05 06:00:00 9.6 17 Noroeste 25 Oeste 0 -- -- 80
2019-06-05 05:00:00 10 19 Noroeste 25 Oeste 0 -- -- 77
2019-06-05 04:00:00 10.6 17 Noroeste 34 Noroeste 0 -- -- 75
2019-06-05 03:00:00 11.7 25 Noroeste 35 Noroeste 0 -- -- 70
2019-06-05 02:00:00 12.5 26 Noroeste 38 Oeste 0 -- -- 67
2019-06-05 01:00:00 12.9 30 Noroeste 41 Oeste 0 -- -- 63
2019-06-05 00:00:00 13.5 29 Oeste 43 Oeste 0 -- -- 61
2019-06-04 23:00:00 14.6 24 Oeste 39 Oeste 0 -- -- 51
2019-06-04 22:00:00 16.8 26 Oeste 44 Oeste 0 -- -- 52
2019-06-04 21:00:00 19.2 31 Oeste 44 Oeste 0 -- -- 48
2019-06-04 20:00:00 19.9 23 Oeste 36 Oeste 0 -- -- 47
2019-06-04 19:00:00 20.2 31 Noroeste 49 Noroeste 0 -- -- 50
2019-06-04 18:00:00 19.7 42 Noroeste 53 Oeste 0 -- -- 62
2019-06-04 17:00:00 22.7 40 Oeste 52 Oeste 0 -- -- 51
2019-06-04 16:00:00 23.7 23 Oeste 40 Oeste 0 -- -- 42
2019-06-04 15:00:00 24.6 28 Oeste 41 Oeste 0 -- -- 39
2019-06-04 14:00:00 24.1 25 Oeste 37 Oeste 0 -- -- 41
2019-06-04 13:00:00 22.4 22 Oeste 35 Oeste 0 -- -- 46
2019-06-04 12:00:00 20.7 19 Oeste 37 Oeste 0 -- -- 53
2019-06-04 11:00:00 19.5 19 Oeste 30 Noroeste 0 -- -- 57
2019-06-04 10:00:00 17.7 18 Oeste 28 Oeste 0 -- -- 65
2019-06-04 09:00:00 15.5 19 Oeste 29 Oeste 0 -- -- 78
2019-06-04 08:00:00 13.7 10 Sudoeste 19 Sudoeste 0 -- -- 90
2019-06-04 07:00:00 12.5 4 Sur 21 Sudoeste 0 -- -- 89
2019-06-04 06:00:00 13.6 13 Sudoeste 18 Sudoeste 0 -- -- 87
2019-06-04 05:00:00 14.3 12 Oeste 17 Oeste 0 -- -- 87
2019-06-04 04:00:00 15.5 9 Sudoeste 17 Sudoeste 0 -- -- 83
2019-06-04 03:00:00 16.4 12 Oeste 19 Oeste 0 -- -- 77
2019-06-04 02:00:00 17.8 10 Oeste 23 Oeste 0 -- -- 70
2019-06-04 01:00:00 19.4 16 Oeste 33 Oeste 0 -- -- 63
2019-06-04 00:00:00 20.7 23 Oeste 34 Oeste 0 -- -- 57
2019-06-03 23:00:00 22.5 24 Oeste 38 Oeste 0 -- -- 58
2019-06-03 22:00:00 25 23 Oeste 34 Oeste 0 -- -- 48
2019-06-03 21:00:00 27.4 22 Oeste 37 Oeste 0 -- -- 41
2019-06-03 20:00:00 29.1 28 Oeste 43 Oeste 0 -- -- 34
2019-06-03 19:00:00 30.6 27 Oeste 42 Oeste 0 -- -- 28
2019-06-03 18:00:00 31.6 27 Oeste 42 Oeste 0 -- -- 23
2019-06-03 17:00:00 32 24 Oeste 40 Sudoeste 0 -- -- 17
2019-06-03 16:00:00 32.4 19 Oeste 36 Oeste 0 -- -- 16
2019-06-03 15:00:00 31.7 12 Oeste 35 Oeste 0 -- -- 15
2019-06-03 14:00:00 31.3 13 Sudoeste 27 Oeste 0 -- -- 13
2019-06-03 13:00:00 29.8 13 Sudoeste 29 Oeste 0 -- -- 16
2019-06-03 12:00:00 28.1 14 Sudoeste 25 Sudoeste 0 -- -- 22
2019-06-03 11:00:00 25.1 10 Sur 17 Sudoeste 0 -- -- 26
2019-06-03 10:00:00 22.7 5 Sudoeste 13 Oeste 0 -- -- 32
2019-06-03 09:00:00 19.7 9 Noroeste 13 Noroeste 0 -- -- 41
2019-06-03 08:00:00 18.3 13 Noroeste 17 Noroeste 0 -- -- 45
2019-06-03 07:00:00 17.5 14 Oeste 17 Sudoeste 0 -- -- 49
2019-06-03 06:00:00 17.8 9 Sudoeste 14 Sudoeste 0 -- -- 50
2019-06-03 05:00:00 18.4 8 Sudoeste 12 Oeste 0 -- -- 46
2019-06-03 04:00:00 19.9 9 Noroeste 15 Oeste 0 -- -- 43
2019-06-03 03:00:00 20.3 13 Noroeste 18 Noroeste 0 -- -- 42
2019-06-03 02:00:00 20.4 12 Noroeste 20 Noroeste 0 -- -- 42
2019-06-03 01:00:00 21.8 17 Noroeste 24 Noroeste 0 -- -- 39
2019-06-03 00:00:00 23.1 17 Noroeste 24 Noroeste 0 -- -- 34
2019-06-02 23:00:00 24.8 18 Noroeste 33 Noroeste 0 -- -- 31
2019-06-02 22:00:00 27.2 24 Noroeste 42 Oeste 0 -- -- 29
2019-06-02 21:00:00 29.4 28 Noroeste 42 Noroeste 0 -- -- 19
2019-06-02 20:00:00 31.4 33 Noroeste 44 Oeste 0 -- -- 18
2019-06-02 19:00:00 33.8 26 Oeste 43 Oeste 0 -- -- 17
2019-06-02 18:00:00 35.3 21 Oeste 40 Sudoeste 0 -- -- 15
2019-06-02 17:00:00 35.3 15 Oeste 36 Oeste 0 -- -- 15
2019-06-02 16:00:00 35 14 Sudoeste 28 Oeste 0 -- -- 15
2019-06-02 15:00:00 34.2 10 Oeste 27 Noroeste 0 -- -- 16
2019-06-02 14:00:00 33.4 8 Nordeste 21 Norte 0 -- -- 17
2019-06-02 13:00:00 32.8 6 Oeste 17 Noroeste 0 -- -- 18
2019-06-02 12:00:00 31.5 5 Este 15 Nordeste 0 -- -- 20
2019-06-02 11:00:00 29.6 10 Norte 21 Nordeste 0 -- -- 23
2019-06-02 10:00:00 28.3 11 Nordeste 17 Norte 0 -- -- 24
2019-06-02 09:00:00 25.4 9 Norte 14 Norte 0 -- -- 28
2019-06-02 08:00:00 21 8 Noroeste 15 Norte 0 -- -- 37
2019-06-02 07:00:00 19.9 12 Noroeste 14 Norte 0 -- -- 39
2019-06-02 06:00:00 20.3 13 Norte 14 Norte 0 -- -- 37
2019-06-02 05:00:00 22.5 3 Noroeste 23 Norte 0 -- -- 32
2019-06-02 04:00:00 22 14 Norte 22 Norte 0 -- -- 35
2019-06-02 03:00:00 24.2 16 Norte 25 Norte 0 -- -- 32
2019-06-02 02:00:00 23.4 10 Norte 15 Noroeste 0 -- -- 36
2019-06-02 01:00:00 24.3 15 Noroeste 18 Oeste 0 -- -- 34
2019-06-02 00:00:00 25.8 15 Noroeste 19 Noroeste 0 -- -- 32
2019-06-01 23:00:00 28.5 12 Sudoeste 19 Sudoeste 0 -- -- 20
2019-06-01 22:00:00 30.1 9 Este 12 Este 0 -- -- 18
2019-06-01 21:00:00 34.1 3 Sur 9 Sudoeste 0 -- -- 16
2019-06-01 20:00:00 34.3 8 Sur 13 Sudoeste 0 -- -- 15
2019-06-01 19:00:00 35.4 5 Oeste 16 Norte 0 -- -- 14
2019-06-01 18:00:00 35.5 7 Oeste 18 Sudoeste 0 -- -- 14
2019-06-01 17:00:00 35.4 13 Sur 24 Sur 0 -- -- 15
2019-06-01 16:00:00 35.5 9 Sudeste 18 Sudeste 0 -- -- 15
2019-06-01 15:00:00 34.1 9 Sur 22 Sudoeste 0 -- -- 17
2019-06-01 14:00:00 33.4 10 Sur 24 Sudoeste 0 -- -- 19
2019-06-01 13:00:00 32 6 Sudoeste 17 Sudeste 0 -- -- 22
2019-06-01 12:00:00 29.4 12 Sur 19 Sur 0 -- -- 25
2019-06-01 11:00:00 27.3 10 Sudeste 19 Sudeste 0 -- -- 28
2019-06-01 10:00:00 24.9 10 Sudeste 19 Sudeste 0 -- -- 31
2019-06-01 09:00:00 22.2 14 Sur 23 Sur 0 -- -- 36
2019-06-01 08:00:00 19.4 15 Sudeste 18 Sudeste 0 -- -- 40
2019-06-01 07:00:00 19.1 14 Sudeste 16 Sudeste 0 -- -- 39
2019-06-01 06:00:00 20.8 8 Sur 14 Sudeste 0 -- -- 34
2019-06-01 05:00:00 22.5 10 Sudeste 21 Sudeste 0 -- -- 31
2019-06-01 04:00:00 24.9 8 Este 14 Sudeste 0 -- -- 26
2019-06-01 03:00:00 24.1 7 Este 15 Este 0 -- -- 26
2019-06-01 02:00:00 25 10 Nordeste 21 Norte 0 -- -- 25
2019-06-01 01:00:00 28.4 6 Este 9 Nordeste 0 -- -- 21
2019-06-01 00:00:00 29.1 3 Este 11 Nordeste 0 -- -- 20
2019-05-31 23:00:00 27.8 10 Nordeste 11 Nordeste 0 -- -- 21
2019-05-31 22:00:00 28.9 9 Nordeste 13 Nordeste 0 -- -- 20
2019-05-31 21:00:00 32 9 Nordeste 19 Este 0 -- -- 17
2019-05-31 20:00:00 33.2 13 Nordeste 21 Nordeste 0 -- -- 16
2019-05-31 19:00:00 33.9 10 Este 24 Nordeste 0 -- -- 15
2019-05-31 18:00:00 34.1 12 Este 30 Nordeste 0 -- -- 16
2019-05-31 17:00:00 34 7 Sur 28 Nordeste 0 -- -- 15
2019-05-31 16:00:00 34 7 Sudeste 27 Nordeste 0 -- -- 16
2019-05-31 15:00:00 33.3 11 Este 25 Este 0 -- -- 17
2019-05-31 14:00:00 32.4 6 Este 24 Sudeste 0 -- -- 19
2019-05-31 13:00:00 30.9 9 Sudeste 21 Sudeste 0 -- -- 21
2019-05-31 12:00:00 29.2 11 Este 21 Este 0 -- -- 24
2019-05-31 11:00:00 27.6 9 Sudeste 18 Sudeste 0 -- -- 28
2019-05-31 10:00:00 25.5 6 Sudeste 12 Sudeste 0 -- -- 31
2019-05-31 09:00:00 22.1 8 Sudeste 17 Sudeste 0 -- -- 38
2019-05-31 08:00:00 19.5 9 Sudeste 17 Sudeste 0 -- -- 39
2019-05-31 07:00:00 19.3 11 Sudeste 21 Este 0 -- -- 40
2019-05-31 06:00:00 19.8 15 Este 21 Este 0 -- -- 35
2019-05-31 05:00:00 21.6 14 Este 19 Este 0 -- -- 30
2019-05-31 04:00:00 21.3 17 Este 22 Este 0 -- -- 33
2019-05-31 03:00:00 21.5 14 Este 20 Este 0 -- -- 33
2019-05-31 02:00:00 23.8 17 Este 21 Nordeste 0 -- -- 28
2019-05-31 01:00:00 24.4 15 Nordeste 19 Este 0 -- -- 26
2019-05-31 00:00:00 24.8 15 Este 17 Este 0 -- -- 26
2019-05-30 23:00:00 25.9 13 Este 15 Este 0 -- -- 26
2019-05-30 22:00:00 27.7 9 Este 15 Este 0 -- -- 24
2019-05-30 21:00:00 30.4 9 Este 27 Este 0 -- -- 21
2019-05-30 20:00:00 31.6 11 Este 29 Este 0 -- -- 18
2019-05-30 19:00:00 32.1 18 Este 32 Este 0 -- -- 15
2019-05-30 18:00:00 32.5 12 Nordeste 31 Este 0 -- -- 15
2019-05-30 17:00:00 32 14 Este 30 Este 0 -- -- 16
2019-05-30 16:00:00 31.3 19 Este 33 Nordeste 0 -- -- 17
2019-05-30 15:00:00 30.4 15 Este 35 Nordeste 0 -- -- 20
2019-05-30 14:00:00 29 22 Nordeste 36 Este 0 -- -- 23
2019-05-30 13:00:00 27.8 20 Este 44 Este 0 -- -- 24
2019-05-30 12:00:00 26.2 30 Este 47 Este 0 -- -- 26
2019-05-30 11:00:00 24.4 31 Este 49 Este 0 -- -- 30
2019-05-30 10:00:00 22.7 30 Este 52 Este 0 -- -- 33
2019-05-30 09:00:00 20.3 35 Este 48 Este 0 -- -- 36
2019-05-30 08:00:00 18.8 30 Este 41 Este 0 -- -- 40
2019-05-30 07:00:00 17.8 23 Este 33 Nordeste 0 -- -- 41
2019-05-30 06:00:00 18.8 24 Este 32 Este 0 -- -- 38
2019-05-30 05:00:00 17.9 18 Nordeste 22 Nordeste 0 -- -- 38
2019-05-30 04:00:00 18.3 19 Nordeste 27 Nordeste 0 -- -- 39
2019-05-30 03:00:00 19.3 21 Nordeste 24 Nordeste 0 -- -- 38
2019-05-30 02:00:00 19.9 17 Nordeste 24 Nordeste 0 -- -- 38
2019-05-30 01:00:00 21.6 18 Nordeste 29 Nordeste 0 -- -- 34
2019-05-30 00:00:00 22.9 21 Nordeste 29 Nordeste 0 -- -- 31
2019-05-29 23:00:00 23.6 17 Nordeste 28 Nordeste 0 -- -- 30
2019-05-29 22:00:00 25.2 21 Nordeste 29 Nordeste 0 -- -- 28
2019-05-29 21:00:00 27.9 16 Nordeste 27 Nordeste 0 -- -- 22
2019-05-29 20:00:00 29.5 17 Nordeste 31 Este 0 -- -- 20
2019-05-29 19:00:00 29.8 19 Nordeste 32 Este 0 -- -- 21
2019-05-29 18:00:00 29.8 13 Nordeste 28 Nordeste 0 -- -- 22
2019-05-29 17:00:00 29.4 16 Nordeste 33 Este 0 -- -- 22
2019-05-29 16:00:00 28.5 16 Este 36 Este 0 -- -- 22
2019-05-29 15:00:00 27.3 20 Este 38 Nordeste 0 -- -- 23
2019-05-29 14:00:00 25.7 22 Este 38 Nordeste 0 -- -- 25
2019-05-29 13:00:00 24.3 21 Nordeste 36 Nordeste 0 -- -- 28
2019-05-29 12:00:00 22.4 25 Nordeste 36 Nordeste 0 -- -- 31
2019-05-29 11:00:00 21.2 25 Nordeste 40 Este 0 -- -- 33
2019-05-29 10:00:00 19.9 28 Nordeste 41 Nordeste 0 -- -- 36
2019-05-29 09:00:00 17.7 24 Nordeste 34 Nordeste -- -- -- 40
2019-05-29 08:00:00 15.2 16 Nordeste 23 Nordeste 0 -- -- 46
2019-05-29 07:00:00 14.4 13 Nordeste 32 Nordeste 0 -- -- 48
2019-05-29 06:00:00 15.5 22 Nordeste 33 Nordeste 0 -- -- 47
2019-05-29 05:00:00 16.2 26 Nordeste 41 Nordeste 0 -- -- 46
2019-05-29 04:00:00 17.7 30 Nordeste 39 Nordeste 0 -- -- 41
2019-05-29 03:00:00 19.1 24 Nordeste 42 Nordeste 0 -- -- 35
2019-05-29 02:00:00 20.7 29 Nordeste 41 Nordeste 0 -- -- 31
2019-05-29 01:00:00 21.8 22 Nordeste 37 Nordeste 0 -- -- 28
2019-05-29 00:00:00 22 17 Nordeste 27 Norte 0 -- -- 28
2019-05-28 23:00:00 23.2 21 Norte 34 Norte 0 -- -- 28
2019-05-28 22:00:00 24.3 18 Norte 33 Norte 0 -- -- 26
2019-05-28 21:00:00 27.1 24 Norte 38 Nordeste 0 -- -- 22
2019-05-28 20:00:00 28.6 26 Nordeste 41 Norte 0 -- -- 20
2019-05-28 19:00:00 29.7 26 Norte 41 Norte 0 -- -- 18
2019-05-28 18:00:00 30.3 24 Norte 40 Norte 0 -- -- 16
2019-05-28 17:00:00 30.1 25 Norte 37 Nordeste 0 -- -- 17
2019-05-28 16:00:00 29.7 21 Norte 38 Norte 0 -- -- 20
2019-05-28 15:00:00 29.3 19 Norte 35 Noroeste 0 -- -- 24
2019-05-28 14:00:00 28.1 21 Nordeste 38 Norte 0 -- -- 24
2019-05-28 13:00:00 27.4 27 Nordeste 42 Nordeste 0 -- -- 27
2019-05-28 12:00:00 25.5 26 Nordeste 37 Nordeste 0 -- -- 35
2019-05-28 11:00:00 23.6 22 Nordeste 37 Nordeste 0 -- -- 40
2019-05-28 10:00:00 21 25 Nordeste 36 Nordeste 0 -- -- 46
2019-05-28 09:00:00 19.1 20 Nordeste 31 Nordeste 0 -- -- 52
2019-05-28 08:00:00 16.9 23 Nordeste 31 Nordeste 0 -- -- 59
2019-05-28 07:00:00 16.1 20 Norte 26 Nordeste 0 -- -- 60
2019-05-28 06:00:00 15 15 Norte 18 Norte 0 -- -- 64
2019-05-28 05:00:00 16.5 18 Norte 19 Norte 0 -- -- 60
2019-05-28 04:00:00 17.6 15 Norte 19 Norte 0 -- -- 58
2019-05-28 03:00:00 18.1 12 Norte 17 Norte 0 -- -- 61
2019-05-28 02:00:00 19.7 10 Norte 25 Norte 0 -- -- 58
2019-05-28 01:00:00 21.5 23 Norte 31 Norte 0 -- -- 56
2019-05-28 00:00:00 21.7 17 Noroeste 20 Noroeste 0 -- -- 56